Columbia, Louisiana
Current Conditions -  °F | °C
As of 10:53 PM on Saturday 25 Oct 2014 (Local Time) from KMLU Reporting Station
Clear Clear  
Wind Chill: 61°   Ceiling: Unl
Heat Index: 61°   Visibility: 8mi
Dew Point: 59°   Wind: 3mph
Humidity: 93%   Direction: 180°S
Pressure: 30.08"   Gusts: NA
Location:  32.11°N, 92.08°W
Report Text: KMLU 260353Z AUTO 18003KT 8SM CLR 16/15 A3008 RMK AO2 SLP186 T01610150
Loading
Personal Weather Stations






























Interactive Weather Map
Tropical Storm Tracking
New forecast layout! Learn more

10-Day Weather Forecast

Advertisements
Track Severe Weather on mobile